Higman Legacy — WDH5331 — position and weather

sailwx.info

Track history (hours):
 
Tides and Currents Weather Stations Pressure Air Temp Water Temp Dewpoint Dewpoint Depression Visibility Wind Speed Wind Dir Waves Ship Positions

Higman Legacy

Owner: Higman Barge Lines, Inc., Orange, TX. More information available from US FCC via Universal Licensing System and Coast Guard Vessel Documentation Center.

Last reported at 2018-Jun-23 17:12 UTC. Time now 2018-Jun-24 01:39 UTC.
Position N 31°53' W 091°13'.

Length 35 m; draft 3 m.

Type: . MMSI: 367626880.

Date/timePositionNaut miles runAvg speedWind from/ knotsBaromVisibWave heightAir tempDewpointWater temp
2018-Jun-23 17:12N 31°53' W 091°13'4 9.5
2018-Jun-23 16:47N 31°57' W 091°12'3 8.9
2018-Jun-23 16:30N 31°59' W 091°10'4 9.1
2018-Jun-23 16:00N 32°00' W 091°05'6 8.5
2018-Jun-23 15:20N 32°06' W 091°06'2 5.9
2018-Jun-23 14:57N 32°08' W 091°04'4 8.1
2018-Jun-23 14:31N 32°09' W 091°00'5 9.8
2018-Jun-23 13:59N 32°14' W 090°59'5 9.6
2018-Jun-23 13:31N 32°18' W 090°56'3 6.5
2018-Jun-23 13:00N 32°21' W 090°56'4 8.2
2018-Jun-23 12:31N 32°23' W 091°00'4 8.0
2018-Jun-23 12:01N 32°26' W 091°02'5 9.8
2018-Jun-23 11:31N 32°29' W 091°07'5 9.6
2018-Jun-23 11:00N 32°34' W 091°06'5 9.7
2018-Jun-23 10:31N 32°38' W 091°09'  
2018-Jun-19 19:02N 32°40' W 091°07'1 6.3
2018-Jun-19 18:57N 32°40' W 091°07'2 4.7
2018-Jun-19 18:25N 32°38' W 091°09'2 5.7
2018-Jun-19 18:01N 32°36' W 091°08'2 4.8
2018-Jun-19 17:31N 32°34' W 091°07'3 5.7
2018-Jun-19 17:01N 32°31' W 091°06'3 6.3
2018-Jun-19 16:30N 32°28' W 091°06'3 6.5
2018-Jun-19 16:01N 32°26' W 091°03'3 6.3
2018-Jun-19 15:30N 32°25' W 090°60'3 5.6
2018-Jun-19 15:01N 32°22' W 091°00'3 5.2
2018-Jun-19 14:30N 32°21' W 090°57'3 6.1
2018-Jun-19 14:00N 32°20' W 090°54'2 3.1
2018-Jun-19 13:29N 32°18' W 090°55'0 0.0
2018-Jun-19 12:59N 32°18' W 090°55'0 0.0
2018-Jun-19 12:29N 32°18' W 090°55'1 2.3
2018-Jun-19 12:00N 32°18' W 090°56'2 4.0
2018-Jun-19 11:30N 32°16' W 090°58'2 4.4
2018-Jun-19 11:00N 32°14' W 090°59'2 4.9
2018-Jun-19 10:30N 32°12' W 090°59'2 4.3
2018-Jun-19 10:00N 32°10' W 091°00'2 4.2
2018-Jun-19 09:30N 32°08' W 091°01'2 3.9
2018-Jun-19 09:00N 32°07' W 091°03'2 4.6
2018-Jun-19 08:30N 32°08' W 091°05'2 3.2
2018-Jun-19 08:00N 32°06' W 091°06'3 5.5
2018-Jun-19 07:30N 32°04' W 091°04'2 4.4
2018-Jun-19 07:00N 32°02' W 091°04'2 2.6
2018-Jun-19 06:12N 32°01' W 091°05'1 3.3
2018-Jun-19 06:01N 31°60' W 091°05'2 4.6
2018-Jun-19 05:31N 31°59' W 091°08'2 4.8
2018-Jun-19 05:00N 31°59' W 091°11'5 4.8
2018-Jun-19 03:51N 31°53' W 091°13'3 4.7
2018-Jun-19 03:15N 31°52' W 091°15'1 4.4
2018-Jun-19 03:00N 31°51' W 091°17'3 4.8
2018-Jun-19 02:25N 31°51' W 091°20'  
Track history (hours):
 
Tides and Currents Weather Stations Pressure Air Temp Water Temp Dewpoint Dewpoint Depression Visibility Wind Speed Wind Dir Waves Ship Positions

Higman Legacy

Owner: Higman Barge Lines, Inc., Orange, TX. More information available from US FCC via Universal Licensing System and Coast Guard Vessel Documentation Center.

Last reported at 2018-Jun-23 17:12 UTC. Time now 2018-Jun-24 01:39 UTC.
Position N 31°53' W 091°13'.

Length 35 m; draft 3 m.

Type: . MMSI: 367626880.

Date/timePositionNaut miles runAvg speedWind from/ knotsBaromVisibWave heightAir tempDewpointWater temp
2018-Jun-23 17:12N 31°53' W 091°13'4 9.5
2018-Jun-23 16:47N 31°57' W 091°12'3 8.9
2018-Jun-23 16:30N 31°59' W 091°10'4 9.1
2018-Jun-23 16:00N 32°00' W 091°05'6 8.5
2018-Jun-23 15:20N 32°06' W 091°06'2 5.9
2018-Jun-23 14:57N 32°08' W 091°04'4 8.1
2018-Jun-23 14:31N 32°09' W 091°00'5 9.8
2018-Jun-23 13:59N 32°14' W 090°59'5 9.6
2018-Jun-23 13:31N 32°18' W 090°56'3 6.5
2018-Jun-23 13:00N 32°21' W 090°56'4 8.2
2018-Jun-23 12:31N 32°23' W 091°00'4 8.0
2018-Jun-23 12:01N 32°26' W 091°02'5 9.8
2018-Jun-23 11:31N 32°29' W 091°07'5 9.6
2018-Jun-23 11:00N 32°34' W 091°06'5 9.7
2018-Jun-23 10:31N 32°38' W 091°09'  
2018-Jun-19 19:02N 32°40' W 091°07'1 6.3
2018-Jun-19 18:57N 32°40' W 091°07'2 4.7
2018-Jun-19 18:25N 32°38' W 091°09'2 5.7
2018-Jun-19 18:01N 32°36' W 091°08'2 4.8
2018-Jun-19 17:31N 32°34' W 091°07'3 5.7
2018-Jun-19 17:01N 32°31' W 091°06'3 6.3
2018-Jun-19 16:30N 32°28' W 091°06'3 6.5
2018-Jun-19 16:01N 32°26' W 091°03'3 6.3
2018-Jun-19 15:30N 32°25' W 090°60'3 5.6
2018-Jun-19 15:01N 32°22' W 091°00'3 5.2
2018-Jun-19 14:30N 32°21' W 090°57'3 6.1
2018-Jun-19 14:00N 32°20' W 090°54'2 3.1
2018-Jun-19 13:29N 32°18' W 090°55'0 0.0
2018-Jun-19 12:59N 32°18' W 090°55'0 0.0
2018-Jun-19 12:29N 32°18' W 090°55'1 2.3
2018-Jun-19 12:00N 32°18' W 090°56'2 4.0
2018-Jun-19 11:30N 32°16' W 090°58'2 4.4
2018-Jun-19 11:00N 32°14' W 090°59'2 4.9
2018-Jun-19 10:30N 32°12' W 090°59'2 4.3
2018-Jun-19 10:00N 32°10' W 091°00'2 4.2
2018-Jun-19 09:30N 32°08' W 091°01'2 3.9
2018-Jun-19 09:00N 32°07' W 091°03'2 4.6
2018-Jun-19 08:30N 32°08' W 091°05'2 3.2
2018-Jun-19 08:00N 32°06' W 091°06'3 5.5
2018-Jun-19 07:30N 32°04' W 091°04'2 4.4
2018-Jun-19 07:00N 32°02' W 091°04'2 2.6
2018-Jun-19 06:12N 32°01' W 091°05'1 3.3
2018-Jun-19 06:01N 31°60' W 091°05'2 4.6
2018-Jun-19 05:31N 31°59' W 091°08'2 4.8
2018-Jun-19 05:00N 31°59' W 091°11'5 4.8
2018-Jun-19 03:51N 31°53' W 091°13'3 4.7
2018-Jun-19 03:15N 31°52' W 091°15'1 4.4
2018-Jun-19 03:00N 31°51' W 091°17'3 4.8
2018-Jun-19 02:25N 31°51' W 091°20'  

Dump ship's entire track history